Aeroporto :
LOGIN :

Iscrizione | Disclaimer

   EN    FR    IT 

 










Sommario :    VFR   VFR Marginale   IFR   IFR Intensivo   IFR Molto Intensivo
Visibilità : 
Base nubi : 
>= 8 km
>= 3000ft
5 / 8 km
1000 / 3000 ft
1500m / 5 km
500 / 1000 ft
800 / 1500m
200 / 500 ft
< 800m
< 200 ft
Simboli :   Temporali  Nebbia  Neve Forte  Precipitazioni Forti  Vento > 20 kt
SIGMETs :   Varie  Temporali  Ghiacco  Turbolenza  Onda orograficha  Ceneri Vulcaniche






- Altitudine del aeroporto : 1197 ft
- Codice IATA : SPM


ETAD - Spangdahlem Ab

ULTIMO METAR :
  • 190656Z AUTO 13006KT 9999 -RA OVC007 10/10 A2973 RMK AO2 RAB55 SLP061 T01040098 $

METARs OBSOLETI :
  • 190641Z AUTO 13005KT 9999 OVC007 10/09 A2973 RMK AO2 OVC V BKN SLP061 $
  • 190626Z AUTO 13004KT 9999 OVC008 10/10 A2973 RMK AO2 SLP061 $
  • 190611Z AUTO 12004KT 9999 BKN007 OVC012 10/09 A2973 RMK AO2 SLP061 $
  • 190556Z AUTO 14005KT 9999 OVC006 10/09 A2973 RMK AO2 RAE19DZB19E20RAB20E31DZB31E33 SLP061 P0000 60001 T00990091 10100 20082 57013 $
  • 190533Z AUTO 12003KT 9999 OVC007 09/08 A2973 RMK AO2 RAE19DZB19E20RAB20E31DZB31E33 SLP061 $
  • 190511Z AUTO 12003KT 9999 -RA OVC007 10/09 A2974 RMK AO2 CIG 007V009 SLP064 $
  • 190456Z AUTO 14004KT 9999 -RA OVC009 09/08 A2974 RMK AO2 DZE00RAB00E08RAB49 SLP066 P0001 T00920081 $
  • 190443Z AUTO 10003KT 9999 BKN010 09/08 A2975 RMK AO2 DZE00RAB00E08 CIG 009 RWY05 SLP067 $
  • 190413Z AUTO 11003KT 9999 FEW011 BKN028 BKN037 09/08 A2976 RMK AO2 DZE00RAB00E08 SLP071 $

TAF AMD TAF ETAD
Valido dal 19 a 06 ore il 20 a 12 ore UTC


190633Z 1906/2012 15003KT 9999 OVC007 QNH2974INS
BECMG 1907/1908 20008KT 9000 -SHRA OVC005 QNH2971INS
BECMG 1911/1912 21010G15KT 8000 -SHRA OVC005 QNH2971INS
TEMPO 1912/1916 22018G25KT 6000 -SHRA
BECMG 1917/1918 20008KT 9000 -SHRA SCT007 BKN010 OVC020 QNH2974INS
BECMG 2001/2002 VRB03KT 9000 -SHRA OVC005 QNH2975INS
BECMG 2005/2006 10015G25KT 8000 -SHRA OVC005 QNH2976INS TX13/1912Z TN10/1906Z



MetMap, La meteo Aeronautica in un colpo d'occhio ! - Copyright ORBIFLY Dicembre 2007 - Disclaimer

ORBIFLY MET'MAP TEAM :

Programmazione e sviluppo : Alexandra Zaïnal
Concezione e sviluppo : Baudouin d'Aumeries
Co-Programmazione e sviluppo : Marc-Olivier Méhu
Supporto tecnico e logistico : Manuel Goepfert
Aiuto per la traduzione : Arnaldo La Scala

Contatto : metmap@orbifly.com




FONTI E CREDITI :

   NOAA